createdAt,value
2022-11-16T00:00:49.627Z,3.22
2022-11-16T00:03:16.332Z,3.42
2022-11-16T00:05:42.822Z,3.53
2022-11-16T00:08:09.393Z,4.10
2022-11-16T00:10:36.042Z,3.38
2022-11-16T00:13:02.644Z,3.60
2022-11-16T00:15:29.322Z,3.45
2022-11-16T00:17:55.864Z,3.55
2022-11-16T00:20:22.405Z,3.67
2022-11-16T00:22:50.131Z,3.80
2022-11-16T00:25:16.701Z,3.60
2022-11-16T00:27:43.312Z,3.42
2022-11-16T00:30:11.552Z,3.72
2022-11-16T00:32:38.070Z,3.47
2022-11-16T00:35:04.910Z,3.38
2022-11-16T00:37:31.432Z,3.65
2022-11-16T00:39:57.988Z,3.75
2022-11-16T00:42:24.595Z,3.30
2022-11-16T00:44:51.172Z,3.35
2022-11-16T00:47:17.768Z,3.75
2022-11-16T00:49:44.316Z,3.40
2022-11-16T00:52:10.942Z,3.58
2022-11-16T00:54:37.479Z,3.58
2022-11-16T00:57:04.115Z,3.70
2022-11-16T00:59:30.621Z,3.85
2022-11-16T01:01:57.308Z,3.35
2022-11-16T01:04:23.886Z,3.80
2022-11-16T01:06:50.452Z,3.50
2022-11-16T01:09:17.062Z,3.97
2022-11-16T01:12:02.288Z,3.85
2022-11-16T01:14:28.802Z,4.15
2022-11-16T01:16:55.458Z,3.55
2022-11-16T01:19:22.061Z,3.60
2022-11-16T01:21:48.657Z,3.90
2022-11-16T01:24:15.206Z,3.10
2022-11-16T01:26:41.866Z,3.40
2022-11-16T01:29:08.545Z,3.65
2022-11-16T01:31:35.082Z,3.75
2022-11-16T01:34:01.745Z,3.75
2022-11-16T01:36:28.254Z,4.03
2022-11-16T01:38:54.883Z,3.28
2022-11-16T01:41:24.134Z,3.92
2022-11-16T01:43:57.640Z,3.10
2022-11-16T01:46:25.363Z,3.33
2022-11-16T01:49:03.277Z,3.53
2022-11-16T01:51:31.196Z,3.42
2022-11-16T01:54:00.767Z,3.25
2022-11-16T01:56:27.542Z,2.85
2022-11-16T01:58:54.273Z,3.60
2022-11-16T02:01:20.994Z,3.38
2022-11-16T02:03:48.878Z,2.92
2022-11-16T02:06:27.555Z,3.17
2022-11-16T02:09:21.839Z,2.70
2022-11-16T02:12:10.150Z,3.17
2022-11-16T02:14:59.670Z,2.90
2022-11-16T02:18:03.700Z,3.10
2022-11-16T02:20:30.351Z,2.97
2022-11-16T02:23:30.600Z,3.00
2022-11-16T02:26:41.935Z,3.38
2022-11-16T02:29:27.525Z,2.85
2022-11-16T02:32:03.091Z,2.97
2022-11-16T02:34:45.101Z,3.55
2022-11-16T02:37:16.331Z,3.20
2022-11-16T02:39:46.452Z,3.45
2022-11-16T02:42:20.547Z,3.00
2022-11-16T02:44:50.330Z,3.38
2022-11-16T02:47:24.966Z,3.22
2022-11-16T02:50:12.400Z,3.40
2022-11-16T02:52:39.155Z,3.53
2022-11-16T02:55:07.602Z,3.40
2022-11-16T02:57:36.915Z,3.63
2022-11-16T03:00:07.684Z,3.20
2022-11-16T03:02:43.386Z,3.40
2022-11-16T03:05:32.710Z,3.55
2022-11-16T03:08:25.333Z,3.60
2022-11-16T03:11:26.191Z,3.55
2022-11-16T03:13:57.381Z,3.42
2022-11-16T03:16:30.837Z,4.30
2022-11-16T03:19:00.422Z,3.63
2022-11-16T03:21:43.609Z,3.58
2022-11-16T03:24:10.626Z,4.30
2022-11-16T03:27:06.138Z,3.67
2022-11-16T03:30:00.162Z,4.03
2022-11-16T03:33:01.640Z,3.80
2022-11-16T03:35:35.384Z,3.78
2022-11-16T03:38:03.931Z,3.63
2022-11-16T03:40:34.087Z,4.10
2022-11-16T03:43:02.923Z,3.60
2022-11-16T03:45:31.347Z,4.15
2022-11-16T03:47:58.148Z,3.83
2022-11-16T03:50:24.785Z,3.70
2022-11-16T03:52:51.341Z,3.65
2022-11-16T03:55:17.965Z,4.53
2022-11-16T03:57:45.761Z,4.05
2022-11-16T04:00:12.810Z,3.75
2022-11-16T04:02:39.307Z,3.85
2022-11-16T04:05:24.394Z,4.18
2022-11-16T04:08:09.404Z,4.13
2022-11-16T04:10:54.588Z,3.90
2022-11-16T04:13:46.977Z,4.18
2022-11-16T04:16:32.254Z,3.83
2022-11-16T04:19:17.750Z,4.03
2022-11-16T04:22:16.976Z,4.00
2022-11-16T04:24:50.482Z,3.92
2022-11-16T04:27:36.369Z,4.45
2022-11-16T04:30:05.099Z,4.90
2022-11-16T04:32:51.856Z,4.32
2022-11-16T04:35:36.783Z,4.50
2022-11-16T04:38:03.609Z,4.35
2022-11-16T04:40:30.196Z,4.43
2022-11-16T04:43:01.812Z,4.53
2022-11-16T04:45:47.863Z,4.50
2022-11-16T04:48:15.832Z,4.32
2022-11-16T04:50:43.268Z,4.60
2022-11-16T04:53:10.694Z,4.65
2022-11-16T04:55:37.280Z,5.03
2022-11-16T04:58:04.668Z,5.35
2022-11-16T05:00:31.501Z,4.90
2022-11-16T05:03:01.326Z,4.75
2022-11-16T05:05:28.367Z,4.72
2022-11-16T05:07:55.039Z,4.95
2022-11-16T05:10:21.604Z,4.90
2022-11-16T05:12:48.266Z,5.25
2022-11-16T05:15:14.850Z,5.05
2022-11-16T05:17:42.406Z,5.25
2022-11-16T05:20:29.175Z,5.50
2022-11-16T05:22:57.729Z,5.07
2022-11-16T05:25:25.190Z,5.70
2022-11-16T05:27:51.699Z,5.45
2022-11-16T05:30:18.441Z,5.45
2022-11-16T05:32:45.099Z,5.10
2022-11-16T05:35:11.742Z,5.53
2022-11-16T05:37:38.283Z,5.30
2022-11-16T05:40:05.457Z,5.18
2022-11-16T05:42:31.984Z,4.90
2022-11-16T05:44:58.494Z,5.15
2022-11-16T05:47:26.197Z,5.97
2022-11-16T05:49:52.940Z,5.97
2022-11-16T05:52:19.440Z,5.03
2022-11-16T05:54:46.068Z,5.72
2022-11-16T05:57:12.667Z,5.47
2022-11-16T05:59:39.160Z,5.05
2022-11-16T06:02:05.937Z,5.70
2022-11-16T06:04:33.034Z,5.72
2022-11-16T06:06:59.647Z,5.43
2022-11-16T06:09:26.151Z,4.95
2022-11-16T06:11:52.851Z,4.95
2022-11-16T06:14:19.396Z,4.88
2022-11-16T06:16:45.954Z,5.10
2022-11-16T06:19:12.596Z,5.20
2022-11-16T06:21:39.167Z,4.55
2022-11-16T06:24:09.139Z,5.35
2022-11-16T06:26:37.031Z,5.45
2022-11-16T06:29:04.321Z,5.50
2022-11-16T06:31:30.871Z,5.20
2022-11-16T06:33:58.457Z,5.22
2022-11-16T06:36:25.070Z,5.00
2022-11-16T06:38:51.638Z,4.80
2022-11-16T06:41:18.328Z,5.03
2022-11-16T06:43:45.175Z,4.70
2022-11-16T06:46:11.878Z,4.78
2022-11-16T06:48:38.653Z,5.05
2022-11-16T06:51:05.360Z,4.68
2022-11-16T06:53:32.023Z,4.75
2022-11-16T06:56:06.073Z,4.75
2022-11-16T06:58:33.184Z,5.15
2022-11-16T07:01:08.071Z,5.22
2022-11-16T07:03:34.615Z,5.53
2022-11-16T07:06:07.441Z,5.70
2022-11-16T07:08:34.118Z,5.55
2022-11-16T07:11:05.766Z,6.50
2022-11-16T07:13:36.941Z,6.30
2022-11-16T07:16:08.147Z,6.60
2022-11-16T07:18:37.319Z,6.05
2022-11-16T07:21:11.493Z,5.63
2022-11-16T07:23:38.493Z,5.22
2022-11-16T07:26:07.178Z,4.47
2022-11-16T07:28:34.413Z,4.90
2022-11-16T07:31:05.083Z,4.57
2022-11-16T07:33:32.087Z,4.10
2022-11-16T07:36:12.775Z,3.80
2022-11-16T07:38:40.042Z,3.85
2022-11-16T07:41:11.911Z,3.90
2022-11-16T07:43:39.872Z,4.35
2022-11-16T07:46:46.078Z,4.60
2022-11-16T07:49:00.314Z,4.25
2022-11-16T07:51:26.896Z,5.10
2022-11-16T07:53:56.101Z,5.40
2022-11-16T07:56:22.649Z,5.40
2022-11-16T07:58:49.444Z,5.97
2022-11-16T08:01:17.984Z,5.43
2022-11-16T08:03:45.907Z,5.43
2022-11-16T08:06:20.278Z,5.05
2022-11-16T08:08:46.800Z,5.15
2022-11-16T08:11:13.443Z,4.35
2022-11-16T08:13:41.181Z,5.65
2022-11-16T08:16:10.532Z,4.40
2022-11-16T08:18:38.285Z,4.20
2022-11-16T08:21:06.917Z,4.30
2022-11-16T08:23:34.248Z,4.00
2022-11-16T08:26:09.514Z,4.13
2022-11-16T08:28:37.642Z,4.03
2022-11-16T08:31:11.928Z,4.22
2022-11-16T08:33:38.990Z,3.92
2022-11-16T08:36:12.515Z,3.72
2022-11-16T08:38:40.720Z,3.03
2022-11-16T08:41:07.398Z,3.80
2022-11-16T08:43:35.756Z,3.55
2022-11-16T08:46:02.537Z,3.40
2022-11-16T08:48:29.053Z,3.40
2022-11-16T08:51:16.818Z,3.40
2022-11-16T08:53:44.239Z,4.13
2022-11-16T08:56:15.026Z,3.40
2022-11-16T08:58:43.682Z,3.22
2022-11-16T09:01:13.967Z,3.17
2022-11-16T09:03:41.483Z,3.58
2022-11-16T09:06:10.061Z,2.88
2022-11-16T09:08:38.797Z,2.92
2022-11-16T09:11:10.441Z,3.10
2022-11-16T09:13:37.465Z,3.00
2022-11-16T09:16:04.615Z,2.45
2022-11-16T09:18:31.534Z,2.50
2022-11-16T09:20:58.461Z,2.55
2022-11-16T09:23:25.914Z,2.40
2022-11-16T09:25:54.401Z,2.60
2022-11-16T09:28:22.516Z,2.45
2022-11-16T09:30:51.227Z,2.30
2022-11-16T09:33:19.346Z,2.30
2022-11-16T09:35:47.152Z,2.30
2022-11-16T09:38:19.099Z,2.42
2022-11-16T09:40:48.738Z,2.38
2022-11-16T09:43:45.330Z,2.60
2022-11-16T09:46:36.588Z,3.90
2022-11-16T09:49:17.308Z,2.55
2022-11-16T09:51:50.080Z,2.63
2022-11-16T09:54:24.451Z,2.65
2022-11-16T09:56:57.614Z,2.38
2022-11-16T09:59:35.543Z,2.47
2022-11-16T10:02:32.451Z,2.47
2022-11-16T10:05:07.845Z,2.85
2022-11-16T10:07:46.569Z,3.00
2022-11-16T10:10:18.216Z,2.67
2022-11-16T10:12:55.659Z,2.78
2022-11-16T10:15:45.126Z,2.55
2022-11-16T10:18:30.103Z,2.50
2022-11-16T10:21:24.793Z,2.67
2022-11-16T10:24:23.816Z,2.42
2022-11-16T10:27:03.816Z,2.50
2022-11-16T10:29:35.406Z,2.22
2022-11-16T10:32:11.180Z,2.20
2022-11-16T10:35:00.009Z,2.20
2022-11-16T10:37:31.674Z,2.60
2022-11-16T10:39:58.753Z,2.10
2022-11-16T10:42:36.914Z,3.17
2022-11-16T10:45:39.799Z,2.47
2022-11-16T10:48:41.329Z,1.75
2022-11-16T10:51:09.597Z,2.30
2022-11-16T10:53:42.465Z,2.25
2022-11-16T10:56:42.690Z,2.08
2022-11-16T10:59:13.790Z,2.65
2022-11-16T11:01:43.675Z,2.33
2022-11-16T11:04:29.504Z,2.47
2022-11-16T11:07:01.133Z,2.15
2022-11-16T11:09:33.252Z,2.17
2022-11-16T11:12:27.758Z,2.30
2022-11-16T11:15:12.608Z,2.05
2022-11-16T11:17:47.823Z,2.60
2022-11-16T11:20:17.287Z,2.75
2022-11-16T11:22:55.330Z,2.05
2022-11-16T11:25:29.692Z,2.20
2022-11-16T11:28:31.753Z,1.80
2022-11-16T11:31:07.590Z,2.03
2022-11-16T11:33:38.659Z,1.98
2022-11-16T11:36:10.674Z,2.15
2022-11-16T11:39:03.436Z,2.17
2022-11-16T11:41:37.010Z,1.98
2022-11-16T11:44:29.015Z,2.00
2022-11-16T11:47:50.290Z,2.13
2022-11-16T11:49:59.689Z,1.90
2022-11-16T11:52:53.079Z,1.88
2022-11-16T11:55:19.751Z,1.98
2022-11-16T11:57:49.430Z,2.30
2022-11-16T12:00:18.120Z,1.90
2022-11-16T12:03:00.622Z,2.00
2022-11-16T12:05:59.702Z,1.45
2022-11-16T12:08:38.435Z,2.40
2022-11-16T12:11:41.078Z,1.58
2022-11-16T12:14:31.437Z,1.90
2022-11-16T12:17:07.290Z,2.13
2022-11-16T12:19:42.880Z,1.88
2022-11-16T12:22:21.593Z,1.67
2022-11-16T12:24:48.634Z,1.63
2022-11-16T12:27:53.733Z,1.33
2022-11-16T12:30:23.384Z,1.42
2022-11-16T12:33:08.327Z,2.00
2022-11-16T12:35:42.887Z,1.90
2022-11-16T12:38:27.547Z,1.63
2022-11-16T12:41:31.805Z,1.70
2022-11-16T12:44:02.165Z,1.63
2022-11-16T12:46:34.445Z,1.80
2022-11-16T12:49:19.819Z,1.58
2022-11-16T12:52:14.437Z,1.70
2022-11-16T12:55:23.972Z,1.42
2022-11-16T12:57:42.282Z,1.70
2022-11-16T13:00:12.707Z,1.80
2022-11-16T13:03:01.942Z,1.67
2022-11-16T13:05:43.985Z,1.95
2022-11-16T13:08:31.940Z,2.95
2022-11-16T13:11:34.021Z,1.55
2022-11-16T13:14:05.255Z,2.17
2022-11-16T13:16:31.885Z,1.70
2022-11-16T13:19:00.711Z,1.65
2022-11-16T13:21:54.232Z,1.63
2022-11-16T13:24:41.795Z,1.55
2022-11-16T13:27:11.034Z,2.15
2022-11-16T13:29:44.583Z,1.33
2022-11-16T13:32:24.627Z,1.20
2022-11-16T13:34:52.432Z,1.50
2022-11-16T13:37:37.576Z,1.40
2022-11-16T13:40:06.756Z,1.38
2022-11-16T13:42:35.821Z,1.42
2022-11-16T13:45:09.457Z,1.52
2022-11-16T13:47:37.453Z,1.30
2022-11-16T13:50:06.980Z,1.40
2022-11-16T13:53:31.849Z,0.90
2022-11-16T13:55:38.743Z,1.13
2022-11-16T13:58:06.766Z,1.70
2022-11-16T14:00:38.762Z,0.93
2022-11-16T14:03:17.442Z,1.27
2022-11-16T14:05:46.896Z,1.42
2022-11-16T14:08:19.403Z,1.63
2022-11-16T14:10:51.866Z,1.38
2022-11-16T14:13:49.688Z,1.65
2022-11-16T14:16:22.806Z,1.60
2022-11-16T14:18:51.654Z,1.48
2022-11-16T14:21:43.313Z,1.30
2022-11-16T14:24:39.716Z,1.50
2022-11-16T14:27:29.264Z,1.40
2022-11-16T14:30:13.897Z,1.30
2022-11-16T14:32:46.039Z,1.20
2022-11-16T14:35:32.736Z,1.27
2022-11-16T14:38:21.639Z,1.17
2022-11-16T14:40:56.191Z,1.50
2022-11-16T14:43:44.453Z,1.10
2022-11-16T14:46:23.450Z,2.08
2022-11-16T14:48:50.598Z,1.50
2022-11-16T14:51:31.801Z,1.30
2022-11-16T14:54:05.219Z,1.02
2022-11-16T14:56:31.777Z,1.15
2022-11-16T14:59:00.249Z,1.50
2022-11-16T15:01:31.159Z,1.45
2022-11-16T15:04:02.575Z,1.25
2022-11-16T15:06:35.415Z,1.33
2022-11-16T15:09:05.396Z,1.30
2022-11-16T15:11:56.351Z,1.30
2022-11-16T15:14:27.021Z,1.58
2022-11-16T15:16:56.259Z,1.70
2022-11-16T15:19:23.955Z,2.00
2022-11-16T15:21:55.383Z,2.00
2022-11-16T15:24:30.924Z,1.58
2022-11-16T15:27:22.961Z,1.60
2022-11-16T15:29:49.609Z,1.77
2022-11-16T15:32:17.219Z,2.47
2022-11-16T15:34:49.089Z,1.65
2022-11-16T15:37:27.043Z,1.65
2022-11-16T15:39:54.735Z,1.70
2022-11-16T15:42:22.650Z,3.20
2022-11-16T15:44:50.120Z,1.75
2022-11-16T15:47:17.284Z,2.22
2022-11-16T15:49:49.634Z,1.77
2022-11-16T15:52:46.379Z,2.58
2022-11-16T15:55:36.196Z,2.10
2022-11-16T15:58:06.507Z,2.15
2022-11-16T16:00:37.045Z,2.20
2022-11-16T16:03:24.006Z,1.92
2022-11-16T16:05:51.482Z,1.92
2022-11-16T16:08:30.426Z,2.33
2022-11-16T16:11:15.228Z,2.10
2022-11-16T16:13:46.734Z,3.00
2022-11-16T16:16:37.456Z,2.40
2022-11-16T16:19:32.743Z,2.25
2022-11-16T16:22:00.326Z,2.30
2022-11-16T16:24:41.399Z,2.75
2022-11-16T16:27:19.629Z,1.98
2022-11-16T16:29:47.675Z,3.15
2022-11-16T16:32:18.259Z,2.97
2022-11-16T16:34:44.984Z,2.50
2022-11-16T16:37:12.592Z,2.53
2022-11-16T16:39:39.904Z,3.22
2022-11-16T16:42:13.716Z,2.90
2022-11-16T16:44:41.349Z,3.05
2022-11-16T16:47:08.210Z,2.75
2022-11-16T16:49:35.581Z,2.53
2022-11-16T16:52:02.782Z,2.80
2022-11-16T16:54:29.632Z,2.13
2022-11-16T16:56:57.484Z,2.50
2022-11-16T16:59:25.151Z,2.50
2022-11-16T17:01:52.062Z,2.55
2022-11-16T17:04:19.183Z,2.20
2022-11-16T17:06:46.717Z,2.50
2022-11-16T17:09:13.949Z,2.33
2022-11-16T17:11:40.484Z,2.35
2022-11-16T17:14:08.476Z,2.25
2022-11-16T17:16:35.875Z,2.53
2022-11-16T17:19:03.736Z,2.90
2022-11-16T17:21:30.939Z,2.30
2022-11-16T17:23:57.971Z,2.65
2022-11-16T17:26:29.459Z,2.60
2022-11-16T17:28:57.215Z,2.47
2022-11-16T17:31:25.195Z,2.67
2022-11-16T17:33:52.481Z,2.88
2022-11-16T17:36:19.782Z,2.65
2022-11-16T17:38:46.791Z,2.42
2022-11-16T17:41:19.599Z,2.55
2022-11-16T17:43:46.663Z,2.83
2022-11-16T17:46:16.681Z,2.88
2022-11-16T17:48:45.112Z,2.53
2022-11-16T17:51:13.282Z,2.70
2022-11-16T17:53:40.888Z,2.90
2022-11-16T17:56:11.229Z,2.75
2022-11-16T17:58:37.853Z,2.58
2022-11-16T18:01:05.369Z,2.22
2022-11-16T18:03:36.192Z,3.58
2022-11-16T18:06:12.116Z,2.50
2022-11-16T18:08:39.986Z,2.70
2022-11-16T18:11:15.523Z,2.38
2022-11-16T18:13:42.671Z,2.72
2022-11-16T18:16:12.685Z,2.28
2022-11-16T18:18:40.327Z,2.78
2022-11-16T18:21:08.527Z,2.67
2022-11-16T18:23:36.658Z,3.00
2022-11-16T18:26:08.582Z,2.72
2022-11-16T18:28:35.475Z,2.97
2022-11-16T18:31:22.413Z,2.83
2022-11-16T18:33:49.664Z,3.00
2022-11-16T18:36:17.154Z,2.80
2022-11-16T18:38:44.109Z,2.60
2022-11-16T18:41:13.751Z,2.70
2022-11-16T18:43:42.402Z,2.97
2022-11-16T18:46:09.546Z,2.55
2022-11-16T18:48:36.112Z,2.63
2022-11-16T18:51:04.558Z,2.60
2022-11-16T18:53:32.590Z,2.55
2022-11-16T18:55:59.534Z,2.70
2022-11-16T19:01:16.896Z,2.40
2022-11-16T19:03:43.934Z,2.70
2022-11-16T19:06:11.837Z,2.95
2022-11-16T19:08:40.413Z,3.00
2022-11-16T19:11:12.198Z,2.38
2022-11-16T19:13:40.292Z,2.75
2022-11-16T19:16:07.872Z,2.80
2022-11-16T19:18:36.147Z,2.63
2022-11-16T19:21:13.522Z,2.55
2022-11-16T19:23:46.141Z,2.42
2022-11-16T19:26:14.308Z,2.40
2022-11-16T19:28:46.970Z,2.50
2022-11-16T19:31:28.853Z,2.67
2022-11-16T19:34:00.839Z,2.50
2022-11-16T19:36:29.410Z,2.88
2022-11-16T19:38:56.216Z,2.75
2022-11-16T19:41:23.112Z,2.45
2022-11-16T19:43:59.130Z,2.42
2022-11-16T19:46:33.799Z,2.92
2022-11-16T19:49:00.547Z,2.80
2022-11-16T19:51:29.938Z,2.80
2022-11-16T19:53:58.025Z,3.50
2022-11-16T19:56:25.038Z,2.90
2022-11-16T19:58:52.225Z,3.10
2022-11-16T20:01:25.442Z,2.70
2022-11-16T20:03:52.364Z,2.60
2022-11-16T20:06:33.705Z,2.50
2022-11-16T20:09:04.130Z,3.33
2022-11-16T20:11:34.134Z,2.70
2022-11-16T20:14:03.189Z,2.63
2022-11-16T20:16:38.347Z,2.50
2022-11-16T20:19:07.395Z,2.60
2022-11-16T20:21:41.986Z,2.47
2022-11-16T20:24:12.031Z,2.50
2022-11-16T20:26:48.635Z,2.70
2022-11-16T20:29:17.587Z,2.50
2022-11-16T20:31:46.031Z,2.60
2022-11-16T20:34:14.585Z,2.53
2022-11-16T20:36:43.746Z,2.60
2022-11-16T20:39:15.065Z,2.65
2022-11-16T20:41:42.943Z,2.40
2022-11-16T20:44:16.709Z,2.45
2022-11-16T20:46:45.121Z,3.00
2022-11-16T20:49:12.115Z,2.95
2022-11-16T20:51:38.896Z,2.90
2022-11-16T20:54:05.801Z,2.90
2022-11-16T20:56:32.634Z,2.63
2022-11-16T20:58:59.600Z,3.15
2022-11-16T21:01:33.324Z,2.40
2022-11-16T21:04:02.657Z,3.47
2022-11-16T21:06:29.385Z,2.83
2022-11-16T21:08:56.442Z,2.70
2022-11-16T21:11:27.130Z,2.80
2022-11-16T21:14:12.571Z,2.63
2022-11-16T21:16:39.504Z,2.63
2022-11-16T21:19:06.250Z,2.53
2022-11-16T21:21:33.565Z,2.60
2022-11-16T21:24:00.664Z,2.47
2022-11-16T21:26:29.495Z,2.67
2022-11-16T21:28:57.112Z,2.90
2022-11-16T21:31:26.994Z,2.20
2022-11-16T21:33:54.569Z,2.80
2022-11-16T21:36:24.278Z,2.95
2022-11-16T21:38:51.886Z,2.58
2022-11-16T21:41:22.513Z,2.70
2022-11-16T21:43:49.526Z,2.83
2022-11-16T21:46:24.929Z,3.10
2022-11-16T21:48:53.916Z,3.10
2022-11-16T21:51:22.187Z,2.92
2022-11-16T21:53:48.805Z,3.35
2022-11-16T21:56:17.552Z,2.50
2022-11-16T21:58:44.802Z,2.70
2022-11-16T22:01:12.644Z,2.85
2022-11-16T22:03:39.650Z,2.80
2022-11-16T22:06:26.319Z,3.20
2022-11-16T22:08:53.223Z,3.45
2022-11-16T22:11:22.123Z,2.90
2022-11-16T22:13:49.831Z,3.03
2022-11-16T22:16:20.070Z,2.47
2022-11-16T22:18:46.648Z,3.33
2022-11-16T22:21:13.542Z,2.50
2022-11-16T22:23:40.683Z,2.90
2022-11-16T22:26:09.836Z,2.70
2022-11-16T22:28:37.508Z,2.92
2022-11-16T22:31:11.129Z,3.13
2022-11-16T22:33:38.827Z,2.85
2022-11-16T22:36:08.394Z,3.33
2022-11-16T22:38:35.241Z,3.10
2022-11-16T22:41:01.748Z,3.30
2022-11-16T22:43:30.358Z,3.05
2022-11-16T22:45:58.965Z,2.75
2022-11-16T22:48:39.528Z,2.38
2022-11-16T22:51:23.216Z,3.30
2022-11-16T22:53:57.750Z,3.47
2022-11-16T22:56:25.684Z,3.78
2022-11-16T22:58:52.693Z,2.90
2022-11-16T23:01:20.721Z,3.15
2022-11-16T23:03:48.287Z,3.05
2022-11-16T23:06:15.124Z,3.33
2022-11-16T23:08:42.067Z,3.53
2022-11-16T23:11:31.328Z,2.63
2022-11-16T23:14:17.026Z,3.15
2022-11-16T23:16:44.185Z,2.88
2022-11-16T23:19:31.149Z,2.83
2022-11-16T23:22:17.050Z,2.80
2022-11-16T23:25:02.428Z,2.88
2022-11-16T23:27:39.561Z,2.70
2022-11-16T23:30:12.164Z,2.58
2022-11-16T23:32:39.344Z,2.75
2022-11-16T23:35:06.284Z,3.13
2022-11-16T23:37:32.829Z,2.85
2022-11-16T23:40:00.494Z,2.75
2022-11-16T23:42:45.390Z,2.40
2022-11-16T23:45:11.954Z,2.47
2022-11-16T23:47:38.549Z,2.88
2022-11-16T23:50:05.515Z,2.42
2022-11-16T23:52:32.171Z,2.78
2022-11-16T23:54:58.642Z,2.45
2022-11-16T23:57:25.190Z,2.42
2022-11-16T23:59:51.939Z,2.42
